Time;durP1;ratioP1;P1;durP2;ratioP2;P2;SDS_P1;SDS_P2;PMS_P1;PMS_P2;Temp;Humidity;BMP_temperature;BMP_pressure;BME280_temperature;BME280_humidity;BME280_pressure;Samples;Min_cycle;Max_cycle;Signal;HPM_P1;HPM_P2
2021/08/16 00:01:53;;;;;;;11.10;8.30;;;;;;;22.33;54.95;100579.52;117671;1182;22909;-81
2021/08/16 00:04:22;;;;;;;11.30;8.50;;;;;;;22.34;54.92;100578.21;117723;1182;21920;-81
2021/08/16 00:06:50;;;;;;;13.50;8.40;;;;;;;22.33;54.76;100576.64;117739;1184;21860;-81
2021/08/16 00:09:38;;;;;;;11.60;8.30;;;;;;;22.36;54.67;100575.36;117708;1185;21951;-82
2021/08/16 00:12:07;;;;;;;14.60;8.60;;;;;;;22.37;54.63;100574.27;117564;1182;22937;-81
2021/08/16 00:14:55;;;;;;;12.00;8.80;;;;;;;22.37;54.62;100575.53;117720;1184;21854;-81
2021/08/16 00:17:24;;;;;;;11.60;8.40;;;;;;;22.37;54.54;100572.83;117722;1185;23538;-81
2021/08/16 00:19:52;;;;;;;11.90;8.50;;;;;;;22.39;54.29;100571.48;117645;1180;22326;-81
2021/08/16 00:22:20;;;;;;;10.30;8.50;;;;;;;22.37;54.51;100573.19;117495;1186;22652;-81
2021/08/16 00:24:49;;;;;;;10.30;7.80;;;;;;;22.34;54.55;100575.70;117620;1179;21857;-81
2021/08/16 00:27:18;;;;;;;12.60;8.10;;;;;;;22.29;54.57;100573.30;117588;1183;23538;-82
2021/08/16 00:29:46;;;;;;;9.70;7.60;;;;;;;22.28;54.60;100570.52;117630;1182;21858;-81
2021/08/16 00:32:31;;;;;;;13.00;7.90;;;;;;;22.25;54.63;100571.77;117667;1184;21854;-81
2021/08/16 00:34:59;;;;;;;12.70;8.10;;;;;;;22.21;54.83;100572.36;117635;1183;23538;-80
2021/08/16 00:37:47;;;;;;;11.40;7.80;;;;;;;22.15;55.04;100571.25;117615;1185;21871;-81
2021/08/16 00:40:23;;;;;;;13.40;8.30;;;;;;;22.10;55.09;100570.27;117754;1182;23557;-81
2021/08/16 00:43:11;;;;;;;12.60;8.00;;;;;;;22.04;55.38;100572.04;117734;1185;21854;-81
2021/08/16 00:45:39;;;;;;;11.40;7.50;;;;;;;21.99;55.67;100567.86;117721;1184;23579;-81
2021/08/16 00:48:27;;;;;;;10.40;7.40;;;;;;;21.96;55.61;100565.19;117726;1185;21870;-81
2021/08/16 00:50:58;;;;;;;11.20;7.70;;;;;;;21.92;55.63;100565.73;117729;1182;23547;-81
2021/08/16 00:53:29;;;;;;;11.80;7.60;;;;;;;21.90;55.65;100564.10;117721;1186;21864;-81
2021/08/16 00:56:17;;;;;;;10.00;7.20;;;;;;;21.87;55.77;100563.93;117572;1186;21878;-81
2021/08/16 00:58:48;;;;;;;9.50;7.60;;;;;;;21.84;55.82;100564.59;117710;1179;22415;-81
2021/08/16 01:01:17;;;;;;;11.00;7.40;;;;;;;21.82;55.84;100566.48;117698;1180;22176;-81
2021/08/16 01:03:47;;;;;;;11.20;7.80;;;;;;;21.80;55.89;100566.13;117715;1184;22959;-81
2021/08/16 01:06:17;;;;;;;14.60;8.30;;;;;;;21.74;56.12;100564.09;117582;1182;21854;-81
2021/08/16 01:08:53;;;;;;;10.50;8.00;;;;;;;21.67;56.21;100562.67;117635;1184;23616;-81
2021/08/16 01:11:21;;;;;;;12.20;8.00;;;;;;;21.63;56.35;100560.05;117559;1182;21844;-81
2021/08/16 01:14:07;;;;;;;11.50;8.20;;;;;;;21.58;56.46;100561.92;117621;1184;21942;-81
2021/08/16 01:16:38;;;;;;;10.80;7.40;;;;;;;21.52;56.45;100561.52;117541;1184;22921;-82
2021/08/16 01:19:26;;;;;;;13.40;8.70;;;;;;;21.47;56.53;100559.83;117573;1185;22964;-81
2021/08/16 01:21:54;;;;;;;11.10;8.40;;;;;;;21.42;56.56;100554.20;117679;1182;23621;-81
2021/08/16 01:24:23;;;;;;;12.40;8.00;;;;;;;21.38;56.64;100553.92;117762;1186;23672;-81
2021/08/16 01:26:51;;;;;;;13.40;8.70;;;;;;;21.35;56.64;100556.77;117777;1179;23577;-81
2021/08/16 01:29:21;;;;;;;11.30;8.30;;;;;;;21.31;56.75;100556.77;117736;1179;22898;-81
2021/08/16 01:31:58;;;;;;;12.90;9.30;;;;;;;21.27;56.80;100550.91;117737;1180;22908;-81
2021/08/16 01:34:27;;;;;;;12.30;9.40;;;;;;;21.24;56.89;100545.16;117741;1185;21845;-81
2021/08/16 01:36:56;;;;;;;21.10;11.50;;;;;;;21.20;56.95;100551.29;117722;1185;23547;-81
2021/08/16 01:39:24;;;;;;;20.80;12.50;;;;;;;21.16;57.01;100552.63;117698;1185;21845;-81
2021/08/16 01:41:52;;;;;;;19.40;12.60;;;;;;;21.12;57.16;100549.25;117697;1182;22930;-81
2021/08/16 01:44:22;;;;;;;22.50;12.90;;;;;;;21.08;57.30;100542.30;117602;1184;22240;-81
2021/08/16 01:46:51;;;;;;;22.50;14.00;;;;;;;21.07;57.37;100547.68;117660;1182;22908;-81
2021/08/16 01:49:20;;;;;;;20.60;14.00;;;;;;;21.05;57.42;100548.01;117682;1183;22908;-81
2021/08/16 01:51:48;;;;;;;21.10;13.60;;;;;;;21.00;57.56;100549.15;117758;1185;23579;-81
2021/08/16 01:54:16;;;;;;;22.20;13.60;;;;;;;20.93;57.68;100548.42;117703;1180;22926;-81
2021/08/16 01:56:45;;;;;;;17.00;12.20;;;;;;;20.89;57.70;100552.23;117704;1180;22808;-81
2021/08/16 01:59:13;;;;;;;17.70;12.30;;;;;;;20.87;57.94;100553.75;117635;1182;22938;-81
2021/08/16 02:01:41;;;;;;;23.50;12.40;;;;;;;20.85;57.97;100555.67;117833;1179;22673;-81
2021/08/16 02:04:10;;;;;;;19.30;12.60;;;;;;;20.84;58.10;100552.88;117782;1179;23551;-81
2021/08/16 02:06:39;;;;;;;17.90;12.80;;;;;;;20.83;58.12;100552.52;117741;1179;23561;-81
2021/08/16 02:09:07;;;;;;;16.30;11.10;;;;;;;20.84;58.12;100553.41;117690;1183;21892;-81
2021/08/16 02:11:35;;;;;;;18.50;11.50;;;;;;;20.84;58.04;100555.52;117728;1180;23560;-82
2021/08/16 02:14:03;;;;;;;19.90;12.90;;;;;;;20.82;58.07;100553.10;117723;1185;22049;-81
2021/08/16 02:16:32;;;;;;;19.30;12.80;;;;;;;20.82;58.00;100549.92;117728;1185;21864;-81
2021/08/16 02:19:00;;;;;;;19.90;13.10;;;;;;;20.80;58.10;100550.54;117649;1184;21861;-81
2021/08/16 02:21:28;;;;;;;18.80;13.10;;;;;;;20.80;58.15;100550.55;117714;1179;23547;-81
2021/08/16 02:23:57;;;;;;;17.90;13.50;;;;;;;20.77;58.28;100551.77;117720;1185;21845;-81
2021/08/16 02:26:32;;;;;;;17.40;12.50;;;;;;;20.72;58.33;100553.42;117688;1185;22334;-82
2021/08/16 02:29:00;;;;;;;19.20;12.90;;;;;;;20.69;58.47;100550.77;117654;1179;23538;-81
2021/08/16 02:31:28;;;;;;;21.70;12.90;;;;;;;20.64;58.64;100544.38;117658;1184;21845;-81
2021/08/16 02:33:57;;;;;;;18.60;12.40;;;;;;;20.65;58.57;100548.16;117634;1179;21855;-81
2021/08/16 02:36:25;;;;;;;18.30;11.50;;;;;;;20.64;58.41;100547.95;117529;1185;21850;-81
2021/08/16 02:38:53;;;;;;;23.50;11.50;;;;;;;20.64;57.96;100549.20;117612;1182;21852;-81
2021/08/16 02:41:21;;;;;;;14.80;11.10;;;;;;;20.62;57.73;100550.92;117539;1175;21858;-81
2021/08/16 02:43:50;;;;;;;18.40;10.30;;;;;;;20.59;57.56;100549.84;117659;1183;23563;-81
2021/08/16 02:46:19;;;;;;;30.70;12.70;;;;;;;20.59;57.55;100551.27;117662;1185;23717;-82
2021/08/16 02:48:49;;;;;;;31.00;12.60;;;;;;;20.59;57.58;100553.41;117761;1183;23546;-81
2021/08/16 02:51:17;;;;;;;19.90;12.00;;;;;;;20.59;57.50;100558.38;117742;1185;21867;-81
2021/08/16 02:53:45;;;;;;;18.70;11.40;;;;;;;20.58;57.61;100555.93;117673;1185;21865;-81
2021/08/16 02:56:13;;;;;;;15.60;11.80;;;;;;;20.56;57.65;100561.38;117621;1185;21861;-82
2021/08/16 02:58:41;;;;;;;17.30;12.00;;;;;;;20.53;57.67;100564.73;117680;1176;23433;-82
2021/08/16 03:01:09;;;;;;;16.60;11.20;;;;;;;20.46;57.72;100566.52;117706;1184;21937;-81
2021/08/16 03:03:37;;;;;;;19.10;10.80;;;;;;;20.34;57.77;100565.17;117609;1183;21855;-81
2021/08/16 03:06:05;;;;;;;20.50;11.40;;;;;;;20.22;57.94;100574.32;117636;1185;21893;-82
2021/08/16 03:08:36;;;;;;;18.70;10.40;;;;;;;20.08;58.20;100576.05;117724;1185;21842;-81
2021/08/16 03:11:24;;;;;;;19.00;11.10;;;;;;;19.96;58.51;100574.67;117661;1179;22888;-81
2021/08/16 03:13:52;;;;;;;13.80;10.40;;;;;;;19.92;58.74;100575.60;117571;1186;21855;-81
2021/08/16 03:16:21;;;;;;;15.20;10.90;;;;;;;19.87;58.97;100575.06;117698;1179;21853;-81
2021/08/16 03:18:51;;;;;;;17.50;10.20;;;;;;;19.87;59.17;100574.52;117502;1184;23557;-81
2021/08/16 03:21:19;;;;;;;15.10;9.80;;;;;;;19.90;59.33;100571.04;117655;1176;21869;-81
2021/08/16 03:23:48;;;;;;;16.20;9.80;;;;;;;19.90;59.50;100575.47;117637;1183;21899;-81
2021/08/16 03:26:25;;;;;;;20.40;10.30;;;;;;;19.89;59.97;100577.48;117513;1184;23538;-81
2021/08/16 03:28:53;;;;;;;27.80;11.80;;;;;;;19.92;60.18;100580.38;117657;1184;21858;-81
2021/08/16 03:31:21;;;;;;;17.10;10.60;;;;;;;19.98;60.30;100579.80;117661;1180;22628;-81
2021/08/16 03:33:49;;;;;;;18.10;10.20;;;;;;;20.06;60.43;100580.27;117639;1179;22617;-81
2021/08/16 03:36:17;;;;;;;15.50;10.50;;;;;;;20.12;60.53;100579.98;117744;1185;21865;-82
2021/08/16 03:38:46;;;;;;;14.70;10.30;;;;;;;20.19;60.53;100575.36;117629;1182;23551;-81
2021/08/16 03:41:14;;;;;;;14.60;10.40;;;;;;;20.28;60.69;100577.61;117752;1185;23573;-82
2021/08/16 03:43:42;;;;;;;15.90;10.40;;;;;;;20.35;60.87;100573.30;117705;1185;22737;-81
2021/08/16 03:46:11;;;;;;;16.60;10.70;;;;;;;20.43;60.88;100567.23;117656;1184;22985;-81
2021/08/16 03:48:39;;;;;;;16.20;10.30;;;;;;;20.51;60.94;100566.81;117653;1182;22954;-81
2021/08/16 03:51:09;;;;;;;14.00;10.00;;;;;;;20.60;61.02;100564.41;117557;1182;23604;-81
2021/08/16 03:53:39;;;;;;;14.60;9.90;;;;;;;20.72;61.02;100566.84;117572;1182;23550;-81
2021/08/16 03:56:10;;;;;;;16.50;10.90;;;;;;;20.84;61.05;100569.45;117681;1186;21891;-81
2021/08/16 03:58:41;;;;;;;18.40;11.10;;;;;;;20.97;61.00;100571.42;117634;1183;22658;-81
2021/08/16 04:01:10;;;;;;;22.00;10.80;;;;;;;21.12;60.83;100570.47;117673;1184;21852;-82
2021/08/16 04:03:41;;;;;;;17.40;10.50;;;;;;;21.25;60.63;100574.96;117685;1183;23784;-81
2021/08/16 04:06:09;;;;;;;14.10;10.10;;;;;;;21.35;60.59;100576.55;117679;1180;21960;-82
2021/08/16 04:08:39;;;;;;;18.90;10.30;;;;;;;21.42;60.54;100573.12;117726;1184;23544;-81
2021/08/16 04:11:08;;;;;;;20.30;10.10;;;;;;;21.50;60.59;100571.96;117610;1185;23229;-81
2021/08/16 04:13:36;;;;;;;17.30;10.00;;;;;;;21.60;60.47;100573.40;117647;1185;23457;-81
2021/08/16 04:16:04;;;;;;;21.70;11.20;;;;;;;21.75;60.57;100573.52;117672;1184;21855;-81
2021/08/16 04:18:33;;;;;;;24.80;11.50;;;;;;;21.85;60.61;100570.64;117633;1185;23433;-81
2021/08/16 04:21:16;;;;;;;17.50;10.70;;;;;;;21.97;60.47;100567.27;117614;1179;23669;-81
2021/08/16 04:23:44;;;;;;;14.40;10.00;;;;;;;22.10;60.49;100568.33;117687;1182;23560;-81
2021/08/16 04:26:12;;;;;;;13.80;10.60;;;;;;;22.21;60.43;100573.98;117590;1185;21908;-81
2021/08/16 04:28:40;;;;;;;22.10;11.00;;;;;;;22.31;60.38;100575.14;117684;1179;21853;-81
2021/08/16 04:31:08;;;;;;;15.20;11.00;;;;;;;22.45;60.48;100575.80;117522;1184;21894;-82
2021/08/16 04:33:37;;;;;;;16.90;10.90;;;;;;;22.60;60.33;100579.39;117753;1182;21881;-82
2021/08/16 04:36:05;;;;;;;17.10;10.80;;;;;;;22.74;60.43;100582.12;117640;1183;22654;-82
2021/08/16 04:38:33;;;;;;;18.40;10.60;;;;;;;22.90;60.37;100585.48;117618;1182;21857;-83
2021/08/16 04:41:02;;;;;;;15.50;11.30;;;;;;;23.05;60.62;100586.54;117636;1183;21855;-82
2021/08/16 04:43:30;;;;;;;14.30;10.60;;;;;;;23.19;60.81;100583.73;117624;1185;23560;-83
2021/08/16 04:45:59;;;;;;;28.50;11.40;;;;;;;23.34;60.48;100584.02;117668;1185;23547;-82
2021/08/16 04:48:28;;;;;;;25.10;10.80;;;;;;;23.53;61.05;100582.54;117718;1180;22907;-83
2021/08/16 04:50:56;;;;;;;17.00;10.30;;;;;;;23.75;61.28;100586.52;117678;1180;21867;-83
2021/08/16 04:53:24;;;;;;;14.10;9.20;;;;;;;24.04;60.94;100585.55;117723;1182;23551;-83
2021/08/16 04:55:54;;;;;;;;;;;;;;;24.32;60.58;100582.67;117617;1184;21855;-85
2021/08/16 04:58:22;;;;;;;15.20;9.20;;;;;;;24.53;60.23;100582.52;117528;1183;22892;-83
2021/08/16 05:00:50;;;;;;;13.30;9.30;;;;;;;24.71;59.94;100582.87;117655;1184;21859;-83
2021/08/16 05:03:19;;;;;;;14.80;8.90;;;;;;;24.93;59.82;100582.70;117762;1179;22634;-84
2021/08/16 05:05:52;;;;;;;12.90;8.80;;;;;;;25.17;59.25;100578.11;117785;1179;23556;-83
2021/08/16 05:08:27;;;;;;;10.60;8.20;;;;;;;25.33;58.90;100577.52;117714;1179;23534;-83
2021/08/16 05:11:18;;;;;;;11.40;7.50;;;;;;;25.50;58.72;100575.08;117648;1186;21859;-83
2021/08/16 05:13:46;;;;;;;15.40;8.70;;;;;;;25.65;58.22;100578.55;117744;1176;23455;-82
2021/08/16 05:16:18;;;;;;;11.00;8.00;;;;;;;25.81;58.00;100577.38;117725;1179;24140;-83
2021/08/16 05:18:46;;;;;;;11.70;8.20;;;;;;;25.99;57.63;100575.34;117754;1182;21854;-83
2021/08/16 05:21:14;;;;;;;10.40;8.10;;;;;;;26.20;57.04;100575.26;117735;1179;22265;-91
2021/08/16 05:23:55;;;;;;;15.50;7.60;;;;;;;26.38;56.25;100575.84;117646;1182;23461;-91
2021/08/16 05:26:23;;;;;;;10.10;6.80;;;;;;;26.53;55.46;100579.91;117618;1183;23564;-91
2021/08/16 05:28:53;;;;;;;11.00;6.80;;;;;;;26.69;54.64;100576.18;117739;1182;21852;-91
2021/08/16 05:31:21;;;;;;;13.60;6.80;;;;;;;26.91;54.39;100576.18;117689;1179;22886;-92
2021/08/16 05:33:50;;;;;;;8.50;6.60;;;;;;;27.15;53.91;100578.26;117741;1186;21869;-92
2021/08/16 05:36:18;;;;;;;11.30;7.20;;;;;;;27.40;53.53;100572.90;117761;1179;23573;-92
2021/08/16 05:38:48;;;;;;;11.40;7.80;;;;;;;27.59;52.72;100569.75;117633;1186;23803;-93
2021/08/16 05:41:16;;;;;;;11.90;7.60;;;;;;;27.75;52.25;100567.39;117651;1185;21858;-93
2021/08/16 05:44:00;;;;;;;10.00;6.90;;;;;;;27.97;51.86;100567.77;117829;1179;23550;-92
2021/08/16 05:46:29;;;;;;;9.20;7.00;;;;;;;28.17;50.89;100566.30;117729;1176;22041;-94
2021/08/16 05:48:57;;;;;;;11.90;6.90;;;;;;;28.37;50.19;100562.66;117543;1180;23420;-96
2021/08/16 05:51:26;;;;;;;15.80;7.90;;;;;;;28.56;49.42;100563.95;117658;1185;22911;-96
2021/08/16 05:53:56;;;;;;;13.80;7.10;;;;;;;28.77;49.24;100567.94;117856;1182;22087;-95
2021/08/16 05:56:26;;;;;;;11.10;6.20;;;;;;;29.00;48.64;100570.33;117751;1182;23619;-95
2021/08/16 05:58:56;;;;;;;8.80;6.70;;;;;;;29.20;48.08;100569.67;117897;1176;23574;-93
2021/08/16 06:01:24;;;;;;;8.30;6.20;;;;;;;29.31;47.66;100570.52;117718;1182;21848;-93
2021/08/16 06:03:55;;;;;;;9.40;6.80;;;;;;;29.45;47.42;100568.39;117650;1182;21861;-94
2021/08/16 06:06:23;;;;;;;13.90;6.80;;;;;;;29.59;47.02;100568.23;117722;1182;23558;-94
2021/08/16 06:08:51;;;;;;;14.10;6.70;;;;;;;29.70;46.47;100569.02;117855;1179;23534;-93
2021/08/16 06:11:20;;;;;;;8.80;6.10;;;;;;;29.83;45.62;100572.97;117745;1184;21852;-95
2021/08/16 06:13:49;;;;;;;20.90;7.20;;;;;;;29.98;45.59;100573.55;117672;1184;22919;-93
2021/08/16 06:16:18;;;;;;;139.30;19.80;;;;;;;30.17;45.04;100573.33;117625;1183;21941;-93
2021/08/16 06:18:47;;;;;;;14.80;7.80;;;;;;;30.33;44.24;100571.46;117461;1183;22909;-94
2021/08/16 06:21:17;;;;;;;11.50;6.40;;;;;;;30.49;43.81;100575.09;117885;1183;22830;-95
2021/08/16 06:23:51;;;;;;;10.80;5.50;;;;;;;30.67;43.31;100574.34;117853;1179;22379;-96
2021/08/16 06:26:21;;;;;;;9.20;6.50;;;;;;;30.84;42.80;100571.48;117935;1179;22814;-95
2021/08/16 06:28:50;;;;;;;7.40;5.90;;;;;;;30.97;42.04;100571.82;117529;1185;21881;-94
2021/08/16 06:31:19;;;;;;;8.70;5.60;;;;;;;31.05;41.59;100571.66;117772;1185;21851;-94
2021/08/16 06:33:47;;;;;;;9.40;6.10;;;;;;;31.18;41.86;100570.03;117638;1184;21843;-93
2021/08/16 06:36:18;;;;;;;11.50;6.60;;;;;;;31.41;41.78;100567.32;117579;1182;23535;-96
2021/08/16 06:38:48;;;;;;;7.10;5.50;;;;;;;31.66;41.48;100564.84;117801;1182;22906;-94
2021/08/16 06:41:17;;;;;;;8.60;5.60;;;;;;;31.92;40.50;100561.75;117635;1186;23560;-95
2021/08/16 06:43:47;;;;;;;7.90;5.70;;;;;;;32.15;40.14;100554.41;117581;1185;22270;-96
2021/08/16 06:46:16;;;;;;;7.90;5.40;;;;;;;32.44;39.77;100551.12;117716;1184;22619;-94
2021/08/16 06:48:45;;;;;;;9.80;5.40;;;;;;;32.80;38.93;100550.16;117722;1185;22867;-94
2021/08/16 06:51:13;;;;;;;11.70;5.80;;;;;;;33.05;38.16;100553.97;117845;1185;22339;-90
2021/08/16 06:53:42;;;;;;;10.80;5.20;;;;;;;33.25;37.72;100556.17;117869;1183;21865;-96
2021/08/16 06:56:13;;;;;;;9.00;5.50;;;;;;;33.45;36.73;100551.77;117768;1183;21857;-94
2021/08/16 06:58:42;;;;;;;10.40;5.20;;;;;;;33.53;35.89;100551.82;117773;1183;22809;-96
2021/08/16 07:01:23;;;;;;;7.50;5.20;;;;;;;33.66;36.01;100556.21;117631;1179;21849;-94
2021/08/16 07:03:54;;;;;;;7.00;5.20;;;;;;;33.78;34.18;100557.34;117693;1182;22807;-94
2021/08/16 07:06:25;;;;;;;7.00;5.30;;;;;;;33.75;33.80;100562.25;117636;1185;21869;-93
2021/08/16 07:08:53;;;;;;;8.90;5.50;;;;;;;33.83;33.70;100560.24;117502;1184;22919;-94
2021/08/16 07:11:23;;;;;;;6.70;5.30;;;;;;;33.92;32.75;100561.84;117601;1182;23648;-94
2021/08/16 07:13:51;;;;;;;6.90;5.60;;;;;;;33.93;32.29;100564.80;117708;1179;23650;-94
2021/08/16 07:16:21;;;;;;;7.30;5.60;;;;;;;33.97;32.56;100565.67;117686;1184;21855;-94
2021/08/16 07:18:58;;;;;;;14.60;6.20;;;;;;;34.06;32.47;100562.70;117742;1179;21865;-95
2021/08/16 07:21:27;;;;;;;12.60;6.50;;;;;;;34.28;32.87;100560.64;117712;1181;22809;-96
2021/08/16 07:23:59;;;;;;;9.70;5.60;;;;;;;34.61;32.41;100564.40;117807;1184;23538;-94
2021/08/16 07:26:29;;;;;;;8.20;5.60;;;;;;;34.95;32.76;100562.69;117627;1184;21860;-94
2021/08/16 07:28:57;;;;;;;11.60;6.30;;;;;;;35.30;31.96;100556.09;117913;1185;21862;-94
2021/08/16 07:31:25;;;;;;;9.70;6.00;;;;;;;35.51;31.22;100558.96;117660;1176;23442;-94
2021/08/16 07:33:54;;;;;;;6.90;5.30;;;;;;;35.76;31.45;100561.88;117716;1185;21853;-94
2021/08/16 07:36:22;;;;;;;9.10;5.70;;;;;;;36.20;31.97;100559.71;117729;1185;22792;-94
2021/08/16 07:38:51;;;;;;;7.80;5.40;;;;;;;36.57;31.71;100556.36;117666;1186;21863;-94
2021/08/16 07:41:19;;;;;;;10.90;6.10;;;;;;;36.91;31.08;100556.17;117709;1180;23560;-92
2021/08/16 07:44:00;;;;;;;8.10;6.00;;;;;;;37.25;30.54;100556.54;117865;1179;23570;-93
2021/08/16 07:46:30;;;;;;;8.50;6.10;;;;;;;37.57;30.15;100559.73;117481;1182;23117;-94
2021/08/16 07:48:59;;;;;;;11.00;6.10;;;;;;;37.78;29.67;100559.39;117837;1183;22921;-93
2021/08/16 07:51:27;;;;;;;14.50;6.30;;;;;;;37.90;28.06;100560.83;117801;1179;23563;-93
2021/08/16 07:53:55;;;;;;;15.50;6.30;;;;;;;37.84;27.09;100564.15;117873;1179;21857;-93
2021/08/16 07:56:23;;;;;;;13.30;6.40;;;;;;;37.65;26.80;100565.19;117722;1180;21856;-92
2021/08/16 07:58:52;;;;;;;9.40;6.20;;;;;;;37.47;26.83;100564.38;117749;1181;23548;-93
2021/08/16 08:01:27;;;;;;;11.50;7.10;;;;;;;37.37;26.97;100564.44;117797;1176;24156;-96
2021/08/16 08:03:56;;;;;;;7.60;5.60;;;;;;;37.34;26.82;100568.08;117994;1185;23443;-95
2021/08/16 08:06:25;;;;;;;6.80;5.30;;;;;;;37.39;26.70;100564.09;118097;1182;21861;-96
2021/08/16 08:08:54;;;;;;;9.00;5.70;;;;;;;37.46;26.56;100562.74;118278;1184;21970;-93
2021/08/16 08:11:23;;;;;;;9.70;6.00;;;;;;;37.54;26.56;100562.79;118398;1180;23542;-93
2021/08/16 08:14:13;;;;;;;9.00;5.60;;;;;;;37.61;26.61;100564.80;117734;1179;23667;-95
2021/08/16 08:16:42;;;;;;;8.50;5.90;;;;;;;37.74;26.97;100563.23;118296;1172;82312;-59
2021/08/16 08:19:11;;;;;;;13.70;6.40;;;;;;;38.04;27.40;100566.61;117426;1184;23437;-65
2021/08/16 08:21:59;;;;;;;13.70;5.80;;;;;;;38.31;25.92;100569.57;117448;1186;21961;-66
2021/08/16 08:24:28;;;;;;;14.90;6.40;;;;;;;38.25;25.33;100567.40;117368;1184;21853;-66
2021/08/16 08:26:56;;;;;;;11.00;6.20;;;;;;;38.12;25.22;100563.40;117376;1183;22202;-65
2021/08/16 08:29:25;;;;;;;8.40;5.70;;;;;;;38.10;25.24;100559.91;117463;1182;23483;-57
2021/08/16 08:31:54;;;;;;;7.90;5.20;;;;;;;38.15;25.04;100559.54;117385;1185;21854;-58
2021/08/16 08:34:22;;;;;;;7.10;5.50;;;;;;;38.14;24.78;100556.77;117344;1185;23558;-57
2021/08/16 08:36:50;;;;;;;8.00;5.80;;;;;;;38.01;24.73;100557.50;117342;1183;21848;-57
2021/08/16 08:39:18;;;;;;;13.90;6.00;;;;;;;37.89;24.71;100555.85;117324;1183;23452;-65
2021/08/16 08:41:47;;;;;;;7.80;5.50;;;;;;;37.71;25.09;100556.98;117501;1183;24165;-67
2021/08/16 08:44:15;;;;;;;9.70;5.50;;;;;;;37.76;25.06;100554.34;117392;1188;21856;-57
2021/08/16 08:46:43;;;;;;;13.00;6.20;;;;;;;38.11;25.11;100551.16;117488;1182;21850;-57
2021/08/16 08:49:14;;;;;;;10.30;5.50;;;;;;;38.42;25.10;100550.92;117451;1185;24271;-60
2021/08/16 08:51:44;;;;;;;11.10;5.70;;;;;;;38.69;24.86;100551.84;117366;1184;24284;-60
2021/08/16 08:54:12;;;;;;;9.90;5.50;;;;;;;38.86;24.64;100548.49;117360;1186;21854;-59
2021/08/16 08:57:01;;;;;;;8.70;5.40;;;;;;;38.70;24.25;100551.63;117434;1182;21857;-60
2021/08/16 08:59:29;;;;;;;9.80;5.80;;;;;;;38.37;24.41;100553.09;117396;1182;21845;-61
2021/08/16 09:01:58;;;;;;;7.90;5.60;;;;;;;38.43;25.02;100551.34;117404;1185;21904;-65
2021/08/16 09:04:26;;;;;;;9.40;5.40;;;;;;;38.76;24.81;100547.45;117488;1186;21892;-60
2021/08/16 09:06:55;;;;;;;10.30;5.30;;;;;;;39.03;24.41;100545.14;117479;1184;21854;-63
2021/08/16 09:09:23;;;;;;;8.40;5.60;;;;;;;39.22;24.24;100540.23;117416;1186;24296;-64
2021/08/16 09:11:52;;;;;;;7.50;5.60;;;;;;;39.29;23.73;100540.23;117370;1183;24175;-64
2021/08/16 09:14:25;;;;;;;9.90;6.20;;;;;;;39.13;23.52;100536.59;117426;1183;24235;-60
2021/08/16 09:16:59;;;;;;;12.20;6.00;;;;;;;39.02;23.21;100537.90;117381;1186;21845;-64
2021/08/16 09:19:41;;;;;;;8.20;5.40;;;;;;;39.06;23.67;100535.33;117472;1186;24284;-67
2021/08/16 09:22:11;;;;;;;8.80;5.40;;;;;;;39.28;23.28;100532.35;117354;1185;24138;-65
2021/08/16 09:24:39;;;;;;;6.60;5.20;;;;;;;39.47;23.12;100525.00;117265;1186;22945;-59
2021/08/16 09:27:10;;;;;;;9.90;5.60;;;;;;;39.70;22.85;100520.09;117301;1185;23484;-65
2021/08/16 09:29:49;;;;;;;12.40;5.70;;;;;;;39.92;22.51;100520.66;117464;1186;21915;-60
2021/08/16 09:32:17;;;;;;;7.20;5.10;;;;;;;40.17;22.80;100516.54;117377;1183;23635;-64
2021/08/16 09:34:48;;;;;;;6.40;5.20;;;;;;;40.42;22.78;100509.33;117460;1185;23452;-58
2021/08/16 09:37:22;;;;;;;9.70;5.70;;;;;;;40.53;22.01;100504.48;117467;1182;21854;-65
2021/08/16 09:40:06;;;;;;;6.10;5.00;;;;;;;40.39;21.81;100503.56;117511;1182;23709;-59
2021/08/16 09:42:45;;;;;;;14.80;5.40;;;;;;;40.07;22.64;100509.88;117532;1185;21855;-58
2021/08/16 09:45:27;;;;;;;8.10;5.20;;;;;;;39.87;22.68;100507.58;117518;1183;21875;-64
2021/08/16 09:47:58;;;;;;;7.90;5.30;;;;;;;40.00;22.64;100500.70;117503;1183;23615;-58
2021/08/16 09:50:36;;;;;;;11.30;5.00;;;;;;;40.26;22.28;100500.98;117448;1182;21902;-57
2021/08/16 09:53:16;;;;;;;8.20;5.40;;;;;;;40.27;21.90;100501.84;117405;1182;24169;-61
2021/08/16 09:55:50;;;;;;;5.40;4.40;;;;;;;40.10;21.89;100500.20;117479;1181;23569;-60
2021/08/16 09:58:20;;;;;;;10.50;5.40;;;;;;;40.01;21.70;100500.11;117434;1186;22302;-67
2021/08/16 10:00:50;;;;;;;7.70;5.60;;;;;;;39.82;21.20;100504.71;117458;1184;24162;-60
2021/08/16 10:03:19;;;;;;;6.60;4.90;;;;;;;39.65;21.01;100504.63;117443;1183;24753;-60
2021/08/16 10:05:49;;;;;;;6.30;4.70;;;;;;;39.72;21.30;100508.41;117429;1183;24162;-59
2021/08/16 10:08:25;;;;;;;5.60;4.30;;;;;;;39.95;21.56;100501.34;117447;1183;23554;-66
2021/08/16 10:10:55;;;;;;;8.40;4.90;;;;;;;40.29;21.57;100498.52;117422;1182;21902;-59
2021/08/16 10:13:23;;;;;;;17.30;5.90;;;;;;;40.58;20.81;100496.62;117482;1183;23473;-59
2021/08/16 10:16:12;;;;;;;12.30;5.30;;;;;;;40.60;20.75;100495.77;117427;1183;22616;-59
2021/08/16 10:18:43;;;;;;;8.30;5.00;;;;;;;40.64;20.69;100493.90;117467;1185;21872;-67
2021/08/16 10:21:17;;;;;;;8.30;4.90;;;;;;;40.87;20.57;100490.17;117432;1182;23486;-67
2021/08/16 10:23:58;;;;;;;8.70;4.40;;;;;;;41.04;20.39;100489.85;117380;1182;24192;-59
2021/08/16 10:26:36;;;;;;;6.60;4.50;;;;;;;41.00;19.72;100490.92;117518;1176;24158;-60
2021/08/16 10:29:06;;;;;;;10.10;5.00;;;;;;;40.84;19.40;100487.21;117379;1184;21861;-59
2021/08/16 10:31:36;;;;;;;6.90;4.80;;;;;;;40.76;19.62;100484.60;117473;1176;23459;-67
2021/08/16 10:34:05;;;;;;;6.20;4.10;;;;;;;40.58;19.97;100481.70;117450;1182;21855;-59
2021/08/16 10:36:33;;;;;;;7.40;5.20;;;;;;;40.40;20.12;100483.42;117505;1185;22651;-67
2021/08/16 10:39:02;;;;;;;7.50;4.50;;;;;;;40.17;20.41;100484.23;117372;1182;23491;-59
2021/08/16 10:41:39;;;;;;;8.20;4.20;;;;;;;40.02;20.33;100484.55;117476;1183;22642;-68
2021/08/16 10:44:16;;;;;;;7.20;4.60;;;;;;;39.88;20.29;100477.81;117329;1182;23571;-59
2021/08/16 10:47:01;;;;;;;8.30;4.80;;;;;;;39.64;20.81;100477.08;117399;1183;21918;-58
2021/08/16 10:49:34;;;;;;;9.00;4.50;;;;;;;39.58;21.08;100478.92;117354;1182;24216;-58
2021/08/16 10:52:03;;;;;;;8.80;4.70;;;;;;;39.68;20.96;100473.83;117449;1185;23365;-64
2021/08/16 10:54:33;;;;;;;;;;;;;;;39.72;20.97;100468.79;117313;1183;24160;-64
2021/08/16 10:57:01;;;;;;;6.40;3.80;;;;;;;39.85;20.87;100468.98;119441;1183;22235;-67
2021/08/16 10:59:30;;;;;;;10.10;4.90;;;;;;;40.01;21.09;100468.32;117476;1183;22914;-58
2021/08/16 11:01:58;;;;;;;5.80;4.30;;;;;;;40.20;20.81;100466.51;117391;1182;24235;-65
2021/08/16 11:04:34;;;;;;;6.00;4.10;;;;;;;40.30;20.64;100464.90;117463;1186;21882;-58
2021/08/16 11:07:04;;;;;;;6.10;4.10;;;;;;;40.26;20.80;100460.14;117469;1182;22636;-58
2021/08/16 11:09:35;;;;;;;9.70;4.80;;;;;;;40.16;20.54;100459.34;117510;1176;21992;-63
2021/08/16 11:12:09;;;;;;;8.40;4.40;;;;;;;40.06;20.18;100460.09;117338;1182;22105;-58
2021/08/16 11:14:57;;;;;;;7.80;4.10;;;;;;;40.06;20.20;100457.77;117398;1186;23580;-58
2021/08/16 11:17:28;;;;;;;;;;;;;;;40.07;20.43;100455.48;117458;1185;24310;-59
2021/08/16 11:20:16;;;;;;;5.30;4.20;;;;;;;40.15;20.39;100452.84;117318;1185;21856;-58
2021/08/16 11:22:52;;;;;;;7.00;4.50;;;;;;;40.23;20.80;100451.55;117321;1186;21874;-65
2021/08/16 11:25:20;;;;;;;9.50;5.70;;;;;;;40.26;21.21;100453.07;117457;1184;21859;-58
2021/08/16 11:27:48;;;;;;;5.60;4.40;;;;;;;40.18;20.12;100447.81;117447;1183;21997;-66